Terminal Aerodrome Forecast
Issued by NWS

Home | Current Version | Previous Version | Text Only | Print | Product List | Glossary On
Versions: 1 2 3 4 5 6 7 8 9 10 11 12 13 14 15
000
FTUS46 KSGX 282337
TAFONT
TAF
KONT 282337Z 2900/3006 25011G18KT P6SM SKC
     FM290200 25010KT P6SM SKC
     FM290500 VRB06KT P6SM SKC
     FM292100 25012G18KT P6SM SCT100
     FM300200 25010KT P6SM BKN100
     FM300500 VRB06KT P6SM BKN100=

USA.gov is the U.S. government's official web portal to all federal, state and local government web resources and services.